sensor_id;sensor_type;location;lat;lon;timestamp;P1;durP1;ratioP1;P2;durP2;ratioP2
5979;SDS011;3016;50.308;8.258;2023-06-22T00:02:11;23.30;;;6.97;;
5979;SDS011;3016;50.308;8.258;2023-06-22T00:05:11;20.33;;;6.17;;
5979;SDS011;3016;50.308;8.258;2023-06-22T00:08:12;21.50;;;5.50;;
5979;SDS011;3016;50.308;8.258;2023-06-22T00:11:13;21.25;;;6.68;;
5979;SDS011;3016;50.308;8.258;2023-06-22T00:14:14;22.45;;;6.75;;
5979;SDS011;3016;50.308;8.258;2023-06-22T00:17:15;20.20;;;6.37;;
5979;SDS011;3016;50.308;8.258;2023-06-22T00:20:15;19.90;;;6.03;;
5979;SDS011;3016;50.308;8.258;2023-06-22T00:23:18;21.73;;;6.43;;
5979;SDS011;3016;50.308;8.258;2023-06-22T00:26:19;20.37;;;6.10;;
5979;SDS011;3016;50.308;8.258;2023-06-22T00:29:20;20.70;;;6.67;;
5979;SDS011;3016;50.308;8.258;2023-06-22T00:32:21;21.80;;;6.97;;
5979;SDS011;3016;50.308;8.258;2023-06-22T00:35:22;21.47;;;7.30;;
5979;SDS011;3016;50.308;8.258;2023-06-22T00:38:23;22.80;;;7.40;;
5979;SDS011;3016;50.308;8.258;2023-06-22T00:41:23;21.97;;;7.30;;
5979;SDS011;3016;50.308;8.258;2023-06-22T00:44:28;22.70;;;8.00;;
5979;SDS011;3016;50.308;8.258;2023-06-22T00:47:29;23.00;;;8.53;;
5979;SDS011;3016;50.308;8.258;2023-06-22T00:50:30;25.90;;;9.00;;
5979;SDS011;3016;50.308;8.258;2023-06-22T00:53:35;24.17;;;8.40;;
5979;SDS011;3016;50.308;8.258;2023-06-22T00:56:37;22.70;;;8.70;;
5979;SDS011;3016;50.308;8.258;2023-06-22T00:59:37;22.80;;;9.17;;
5979;SDS011;3016;50.308;8.258;2023-06-22T01:02:39;24.43;;;8.93;;
5979;SDS011;3016;50.308;8.258;2023-06-22T01:05:41;22.50;;;7.67;;
5979;SDS011;3016;50.308;8.258;2023-06-22T01:08:46;24.33;;;8.17;;
5979;SDS011;3016;50.308;8.258;2023-06-22T01:11:58;22.50;;;7.80;;
5979;SDS011;3016;50.308;8.258;2023-06-22T01:15:10;23.63;;;7.30;;
5979;SDS011;3016;50.308;8.258;2023-06-22T01:18:16;23.27;;;8.23;;
5979;SDS011;3016;50.308;8.258;2023-06-22T01:21:20;22.80;;;8.57;;
5979;SDS011;3016;50.308;8.258;2023-06-22T01:24:26;24.10;;;7.43;;
5979;SDS011;3016;50.308;8.258;2023-06-22T01:27:40;23.03;;;8.27;;
5979;SDS011;3016;50.308;8.258;2023-06-22T01:31:01;22.93;;;8.10;;
5979;SDS011;3016;50.308;8.258;2023-06-22T01:34:05;23.90;;;9.37;;
5979;SDS011;3016;50.308;8.258;2023-06-22T01:37:07;24.60;;;8.03;;
5979;SDS011;3016;50.308;8.258;2023-06-22T01:40:08;24.20;;;8.43;;
5979;SDS011;3016;50.308;8.258;2023-06-22T01:43:10;23.80;;;8.40;;
5979;SDS011;3016;50.308;8.258;2023-06-22T01:46:10;26.20;;;9.33;;
5979;SDS011;3016;50.308;8.258;2023-06-22T01:49:12;23.23;;;8.13;;
5979;SDS011;3016;50.308;8.258;2023-06-22T01:52:13;26.20;;;8.27;;
5979;SDS011;3016;50.308;8.258;2023-06-22T01:55:14;23.37;;;8.90;;
5979;SDS011;3016;50.308;8.258;2023-06-22T01:58:14;25.13;;;8.50;;
5979;SDS011;3016;50.308;8.258;2023-06-22T02:01:17;24.90;;;9.10;;
5979;SDS011;3016;50.308;8.258;2023-06-22T02:04:26;26.33;;;9.00;;
5979;SDS011;3016;50.308;8.258;2023-06-22T02:07:34;24.70;;;9.23;;
5979;SDS011;3016;50.308;8.258;2023-06-22T02:10:45;24.60;;;11.00;;
5979;SDS011;3016;50.308;8.258;2023-06-22T02:13:46;23.93;;;9.87;;
5979;SDS011;3016;50.308;8.258;2023-06-22T02:16:48;26.70;;;9.97;;
5979;SDS011;3016;50.308;8.258;2023-06-22T02:19:51;23.83;;;10.30;;
5979;SDS011;3016;50.308;8.258;2023-06-22T02:22:52;25.87;;;10.93;;
5979;SDS011;3016;50.308;8.258;2023-06-22T02:25:53;25.60;;;9.80;;
5979;SDS011;3016;50.308;8.258;2023-06-22T02:28:53;25.03;;;9.60;;
5979;SDS011;3016;50.308;8.258;2023-06-22T02:31:54;23.20;;;9.27;;
5979;SDS011;3016;50.308;8.258;2023-06-22T02:34:55;24.23;;;9.33;;
5979;SDS011;3016;50.308;8.258;2023-06-22T02:37:56;24.37;;;9.93;;
5979;SDS011;3016;50.308;8.258;2023-06-22T02:40:58;25.47;;;10.83;;
5979;SDS011;3016;50.308;8.258;2023-06-22T02:43:58;25.70;;;10.20;;
5979;SDS011;3016;50.308;8.258;2023-06-22T02:46:59;25.07;;;10.53;;
5979;SDS011;3016;50.308;8.258;2023-06-22T02:50:00;25.10;;;10.20;;
5979;SDS011;3016;50.308;8.258;2023-06-22T02:53:01;24.97;;;9.90;;
5979;SDS011;3016;50.308;8.258;2023-06-22T02:56:02;25.13;;;10.20;;
5979;SDS011;3016;50.308;8.258;2023-06-22T02:59:05;24.27;;;9.40;;
5979;SDS011;3016;50.308;8.258;2023-06-22T03:02:06;24.40;;;9.53;;
5979;SDS011;3016;50.308;8.258;2023-06-22T03:05:07;27.90;;;9.50;;
5979;SDS011;3016;50.308;8.258;2023-06-22T03:08:09;24.03;;;9.43;;
5979;SDS011;3016;50.308;8.258;2023-06-22T03:11:10;26.47;;;11.20;;
5979;SDS011;3016;50.308;8.258;2023-06-22T03:14:11;24.67;;;10.03;;
5979;SDS011;3016;50.308;8.258;2023-06-22T03:17:11;25.80;;;10.03;;
5979;SDS011;3016;50.308;8.258;2023-06-22T03:20:12;27.50;;;10.60;;
5979;SDS011;3016;50.308;8.258;2023-06-22T03:23:13;25.63;;;10.07;;
5979;SDS011;3016;50.308;8.258;2023-06-22T03:26:16;27.10;;;11.40;;
5979;SDS011;3016;50.308;8.258;2023-06-22T03:29:18;27.37;;;12.17;;
5979;SDS011;3016;50.308;8.258;2023-06-22T03:32:18;23.83;;;10.17;;
5979;SDS011;3016;50.308;8.258;2023-06-22T03:35:19;24.63;;;10.03;;
5979;SDS011;3016;50.308;8.258;2023-06-22T03:38:20;26.50;;;10.77;;
5979;SDS011;3016;50.308;8.258;2023-06-22T03:41:20;25.97;;;11.57;;
5979;SDS011;3016;50.308;8.258;2023-06-22T03:44:21;26.67;;;10.77;;
5979;SDS011;3016;50.308;8.258;2023-06-22T03:47:22;29.87;;;10.33;;
5979;SDS011;3016;50.308;8.258;2023-06-22T03:50:23;25.17;;;10.73;;
5979;SDS011;3016;50.308;8.258;2023-06-22T03:53:24;28.60;;;11.70;;
5979;SDS011;3016;50.308;8.258;2023-06-22T03:56:24;29.63;;;11.40;;
5979;SDS011;3016;50.308;8.258;2023-06-22T03:59:25;28.03;;;12.23;;
5979;SDS011;3016;50.308;8.258;2023-06-22T04:02:26;29.50;;;14.00;;
5979;SDS011;3016;50.308;8.258;2023-06-22T04:05:26;27.17;;;11.83;;
5979;SDS011;3016;50.308;8.258;2023-06-22T04:08:27;28.03;;;13.13;;
5979;SDS011;3016;50.308;8.258;2023-06-22T04:11:28;27.57;;;13.00;;
5979;SDS011;3016;50.308;8.258;2023-06-22T04:14:28;28.00;;;12.37;;
5979;SDS011;3016;50.308;8.258;2023-06-22T04:17:29;27.10;;;12.70;;
5979;SDS011;3016;50.308;8.258;2023-06-22T04:20:31;28.63;;;13.77;;
5979;SDS011;3016;50.308;8.258;2023-06-22T04:23:32;29.80;;;13.60;;
5979;SDS011;3016;50.308;8.258;2023-06-22T04:26:32;27.10;;;12.00;;
5979;SDS011;3016;50.308;8.258;2023-06-22T04:29:37;29.83;;;12.83;;
5979;SDS011;3016;50.308;8.258;2023-06-22T04:32:44;27.80;;;12.53;;
5979;SDS011;3016;50.308;8.258;2023-06-22T04:35:45;30.27;;;12.70;;
5979;SDS011;3016;50.308;8.258;2023-06-22T04:38:46;26.87;;;13.00;;
5979;SDS011;3016;50.308;8.258;2023-06-22T04:41:46;29.50;;;13.23;;
5979;SDS011;3016;50.308;8.258;2023-06-22T04:44:47;27.87;;;13.07;;
5979;SDS011;3016;50.308;8.258;2023-06-22T04:47:48;30.80;;;14.13;;
5979;SDS011;3016;50.308;8.258;2023-06-22T04:50:49;26.40;;;12.60;;
5979;SDS011;3016;50.308;8.258;2023-06-22T04:53:50;28.57;;;13.20;;
5979;SDS011;3016;50.308;8.258;2023-06-22T04:56:51;28.33;;;13.70;;
5979;SDS011;3016;50.308;8.258;2023-06-22T04:59:56;28.37;;;13.00;;
5979;SDS011;3016;50.308;8.258;2023-06-22T05:02:57;27.13;;;13.00;;
5979;SDS011;3016;50.308;8.258;2023-06-22T05:05:58;30.40;;;14.23;;
5979;SDS011;3016;50.308;8.258;2023-06-22T05:08:59;28.20;;;13.07;;
5979;SDS011;3016;50.308;8.258;2023-06-22T05:12:00;26.60;;;12.40;;
5979;SDS011;3016;50.308;8.258;2023-06-22T05:15:02;29.40;;;14.00;;
5979;SDS011;3016;50.308;8.258;2023-06-22T05:18:03;28.00;;;13.40;;
5979;SDS011;3016;50.308;8.258;2023-06-22T05:21:05;27.57;;;13.40;;
5979;SDS011;3016;50.308;8.258;2023-06-22T05:24:05;28.07;;;13.80;;
5979;SDS011;3016;50.308;8.258;2023-06-22T05:27:06;27.43;;;13.00;;
5979;SDS011;3016;50.308;8.258;2023-06-22T05:30:07;31.57;;;14.07;;
5979;SDS011;3016;50.308;8.258;2023-06-22T05:33:09;29.10;;;13.43;;
5979;SDS011;3016;50.308;8.258;2023-06-22T05:36:10;27.40;;;12.80;;
5979;SDS011;3016;50.308;8.258;2023-06-22T05:39:12;26.83;;;12.70;;
5979;SDS011;3016;50.308;8.258;2023-06-22T05:42:15;29.53;;;14.07;;
5979;SDS011;3016;50.308;8.258;2023-06-22T05:45:15;31.13;;;13.90;;
5979;SDS011;3016;50.308;8.258;2023-06-22T05:48:16;29.57;;;14.40;;
5979;SDS011;3016;50.308;8.258;2023-06-22T05:51:17;27.13;;;12.73;;
5979;SDS011;3016;50.308;8.258;2023-06-22T05:54:17;27.30;;;12.20;;
5979;SDS011;3016;50.308;8.258;2023-06-22T05:57:18;29.33;;;12.80;;
5979;SDS011;3016;50.308;8.258;2023-06-22T06:00:19;28.40;;;13.00;;
5979;SDS011;3016;50.308;8.258;2023-06-22T06:03:20;29.93;;;11.53;;
5979;SDS011;3016;50.308;8.258;2023-06-22T06:06:21;27.00;;;11.20;;
5979;SDS011;3016;50.308;8.258;2023-06-22T06:09:28;27.27;;;11.90;;
5979;SDS011;3016;50.308;8.258;2023-06-22T06:12:29;28.13;;;11.27;;
5979;SDS011;3016;50.308;8.258;2023-06-22T06:15:30;30.40;;;12.37;;
5979;SDS011;3016;50.308;8.258;2023-06-22T06:18:32;25.07;;;10.60;;
5979;SDS011;3016;50.308;8.258;2023-06-22T06:21:32;24.97;;;10.60;;
5979;SDS011;3016;50.308;8.258;2023-06-22T06:24:33;26.60;;;10.67;;
5979;SDS011;3016;50.308;8.258;2023-06-22T06:27:34;24.67;;;10.80;;
5979;SDS011;3016;50.308;8.258;2023-06-22T06:30:34;25.10;;;10.33;;
5979;SDS011;3016;50.308;8.258;2023-06-22T06:33:37;25.30;;;11.00;;
5979;SDS011;3016;50.308;8.258;2023-06-22T06:36:37;23.47;;;10.50;;
5979;SDS011;3016;50.308;8.258;2023-06-22T06:39:38;26.03;;;11.13;;
5979;SDS011;3016;50.308;8.258;2023-06-22T06:42:39;25.63;;;10.80;;
5979;SDS011;3016;50.308;8.258;2023-06-22T06:45:44;26.67;;;10.30;;
5979;SDS011;3016;50.308;8.258;2023-06-22T06:48:45;24.57;;;10.73;;
5979;SDS011;3016;50.308;8.258;2023-06-22T06:51:45;28.13;;;11.20;;
5979;SDS011;3016;50.308;8.258;2023-06-22T06:54:46;25.70;;;11.20;;
5979;SDS011;3016;50.308;8.258;2023-06-22T06:57:47;24.20;;;10.47;;
5979;SDS011;3016;50.308;8.258;2023-06-22T07:00:48;25.73;;;10.20;;
5979;SDS011;3016;50.308;8.258;2023-06-22T07:03:49;24.93;;;11.07;;
5979;SDS011;3016;50.308;8.258;2023-06-22T07:06:50;24.70;;;10.53;;
5979;SDS011;3016;50.308;8.258;2023-06-22T07:09:50;25.57;;;11.17;;
5979;SDS011;3016;50.308;8.258;2023-06-22T07:12:51;24.17;;;9.57;;
5979;SDS011;3016;50.308;8.258;2023-06-22T07:15:52;23.90;;;10.63;;
5979;SDS011;3016;50.308;8.258;2023-06-22T07:18:52;25.63;;;11.63;;
5979;SDS011;3016;50.308;8.258;2023-06-22T07:21:53;28.30;;;9.90;;
5979;SDS011;3016;50.308;8.258;2023-06-22T07:24:55;24.17;;;9.90;;
5979;SDS011;3016;50.308;8.258;2023-06-22T07:27:57;24.53;;;9.30;;
5979;SDS011;3016;50.308;8.258;2023-06-22T07:31:06;24.40;;;9.67;;
5979;SDS011;3016;50.308;8.258;2023-06-22T07:34:07;24.00;;;9.40;;
5979;SDS011;3016;50.308;8.258;2023-06-22T07:37:07;24.30;;;9.70;;
5979;SDS011;3016;50.308;8.258;2023-06-22T07:40:08;24.10;;;9.50;;
5979;SDS011;3016;50.308;8.258;2023-06-22T07:43:10;23.40;;;9.97;;
5979;SDS011;3016;50.308;8.258;2023-06-22T07:46:10;25.00;;;9.30;;
5979;SDS011;3016;50.308;8.258;2023-06-22T07:49:11;23.73;;;10.03;;
5979;SDS011;3016;50.308;8.258;2023-06-22T07:52:12;24.07;;;9.90;;
5979;SDS011;3016;50.308;8.258;2023-06-22T07:55:13;24.47;;;9.67;;
5979;SDS011;3016;50.308;8.258;2023-06-22T07:58:13;26.03;;;10.50;;
5979;SDS011;3016;50.308;8.258;2023-06-22T08:01:15;23.50;;;9.40;;
5979;SDS011;3016;50.308;8.258;2023-06-22T08:04:16;25.47;;;11.10;;
5979;SDS011;3016;50.308;8.258;2023-06-22T08:07:17;24.87;;;10.10;;
5979;SDS011;3016;50.308;8.258;2023-06-22T08:10:20;29.23;;;9.00;;
5979;SDS011;3016;50.308;8.258;2023-06-22T08:13:21;24.27;;;10.27;;
5979;SDS011;3016;50.308;8.258;2023-06-22T08:16:22;24.60;;;9.60;;
5979;SDS011;3016;50.308;8.258;2023-06-22T08:19:23;25.77;;;9.80;;
5979;SDS011;3016;50.308;8.258;2023-06-22T08:22:23;23.27;;;8.63;;
5979;SDS011;3016;50.308;8.258;2023-06-22T08:25:24;23.53;;;9.87;;
5979;SDS011;3016;50.308;8.258;2023-06-22T08:28:24;22.80;;;8.80;;
5979;SDS011;3016;50.308;8.258;2023-06-22T08:31:25;24.57;;;9.43;;
5979;SDS011;3016;50.308;8.258;2023-06-22T08:34:26;24.27;;;9.50;;
5979;SDS011;3016;50.308;8.258;2023-06-22T08:37:27;24.60;;;10.40;;
5979;SDS011;3016;50.308;8.258;2023-06-22T08:40:31;25.13;;;9.77;;
5979;SDS011;3016;50.308;8.258;2023-06-22T08:43:32;24.87;;;10.13;;
5979;SDS011;3016;50.308;8.258;2023-06-22T08:46:33;24.40;;;10.40;;
5979;SDS011;3016;50.308;8.258;2023-06-22T08:49:33;24.10;;;9.30;;
5979;SDS011;3016;50.308;8.258;2023-06-22T08:52:34;23.80;;;8.00;;
5979;SDS011;3016;50.308;8.258;2023-06-22T08:55:35;24.57;;;9.80;;
5979;SDS011;3016;50.308;8.258;2023-06-22T08:58:36;22.27;;;8.23;;
5979;SDS011;3016;50.308;8.258;2023-06-22T09:01:37;26.93;;;11.10;;
5979;SDS011;3016;50.308;8.258;2023-06-22T09:04:37;24.27;;;9.73;;
5979;SDS011;3016;50.308;8.258;2023-06-22T09:07:38;23.87;;;9.67;;
5979;SDS011;3016;50.308;8.258;2023-06-22T09:10:39;22.47;;;9.10;;
5979;SDS011;3016;50.308;8.258;2023-06-22T09:13:39;23.77;;;9.47;;
5979;SDS011;3016;50.308;8.258;2023-06-22T09:16:40;26.10;;;9.30;;
5979;SDS011;3016;50.308;8.258;2023-06-22T09:19:41;22.17;;;8.47;;
5979;SDS011;3016;50.308;8.258;2023-06-22T09:22:41;23.60;;;9.50;;
5979;SDS011;3016;50.308;8.258;2023-06-22T09:25:42;24.53;;;9.57;;
5979;SDS011;3016;50.308;8.258;2023-06-22T09:28:43;23.77;;;9.30;;
5979;SDS011;3016;50.308;8.258;2023-06-22T09:31:44;25.60;;;9.17;;
5979;SDS011;3016;50.308;8.258;2023-06-22T09:34:44;24.90;;;9.40;;
5979;SDS011;3016;50.308;8.258;2023-06-22T09:37:45;24.57;;;9.27;;
5979;SDS011;3016;50.308;8.258;2023-06-22T09:40:46;23.67;;;9.30;;
5979;SDS011;3016;50.308;8.258;2023-06-22T09:43:46;27.37;;;9.60;;
5979;SDS011;3016;50.308;8.258;2023-06-22T09:46:50;23.10;;;8.57;;
5979;SDS011;3016;50.308;8.258;2023-06-22T09:49:51;25.50;;;8.37;;
5979;SDS011;3016;50.308;8.258;2023-06-22T09:52:51;21.50;;;7.67;;
5979;SDS011;3016;50.308;8.258;2023-06-22T09:55:54;22.40;;;8.83;;
5979;SDS011;3016;50.308;8.258;2023-06-22T09:58:55;21.73;;;8.10;;
5979;SDS011;3016;50.308;8.258;2023-06-22T10:01:56;21.70;;;8.23;;
5979;SDS011;3016;50.308;8.258;2023-06-22T10:04:56;22.33;;;7.77;;
5979;SDS011;3016;50.308;8.258;2023-06-22T10:07:57;22.63;;;9.23;;
5979;SDS011;3016;50.308;8.258;2023-06-22T10:10:58;21.70;;;7.80;;
5979;SDS011;3016;50.308;8.258;2023-06-22T10:13:58;24.00;;;9.40;;
5979;SDS011;3016;50.308;8.258;2023-06-22T10:17:00;22.10;;;8.37;;
5979;SDS011;3016;50.308;8.258;2023-06-22T10:20:00;22.97;;;7.77;;
5979;SDS011;3016;50.308;8.258;2023-06-22T10:23:11;22.00;;;8.33;;
5979;SDS011;3016;50.308;8.258;2023-06-22T10:26:11;23.83;;;8.13;;
5979;SDS011;3016;50.308;8.258;2023-06-22T10:29:12;23.03;;;8.87;;
5979;SDS011;3016;50.308;8.258;2023-06-22T10:32:12;22.93;;;7.20;;
5979;SDS011;3016;50.308;8.258;2023-06-22T10:35:13;23.90;;;8.60;;
5979;SDS011;3016;50.308;8.258;2023-06-22T10:38:15;24.03;;;8.50;;
5979;SDS011;3016;50.308;8.258;2023-06-22T10:41:16;23.40;;;8.47;;
5979;SDS011;3016;50.308;8.258;2023-06-22T10:44:17;23.03;;;8.60;;
5979;SDS011;3016;50.308;8.258;2023-06-22T10:47:18;22.83;;;7.93;;
5979;SDS011;3016;50.308;8.258;2023-06-22T10:50:18;23.80;;;8.70;;
5979;SDS011;3016;50.308;8.258;2023-06-22T10:53:20;23.93;;;8.87;;
5979;SDS011;3016;50.308;8.258;2023-06-22T10:56:21;21.30;;;7.93;;
5979;SDS011;3016;50.308;8.258;2023-06-22T10:59:22;22.33;;;7.93;;
5979;SDS011;3016;50.308;8.258;2023-06-22T11:02:23;23.10;;;8.37;;
5979;SDS011;3016;50.308;8.258;2023-06-22T11:05:24;22.90;;;8.03;;
5979;SDS011;3016;50.308;8.258;2023-06-22T11:08:25;24.33;;;9.40;;
5979;SDS011;3016;50.308;8.258;2023-06-22T11:11:26;21.10;;;7.57;;
5979;SDS011;3016;50.308;8.258;2023-06-22T11:14:26;22.73;;;8.23;;
5979;SDS011;3016;50.308;8.258;2023-06-22T11:17:27;23.50;;;8.27;;
5979;SDS011;3016;50.308;8.258;2023-06-22T11:20:28;23.23;;;8.60;;
5979;SDS011;3016;50.308;8.258;2023-06-22T11:23:28;22.50;;;7.90;;
5979;SDS011;3016;50.308;8.258;2023-06-22T11:26:30;21.83;;;7.53;;
5979;SDS011;3016;50.308;8.258;2023-06-22T11:29:31;24.13;;;9.53;;
5979;SDS011;3016;50.308;8.258;2023-06-22T11:32:32;23.27;;;8.90;;
5979;SDS011;3016;50.308;8.258;2023-06-22T11:35:34;22.00;;;7.47;;
5979;SDS011;3016;50.308;8.258;2023-06-22T11:38:34;25.63;;;8.80;;
5979;SDS011;3016;50.308;8.258;2023-06-22T11:41:36;23.03;;;8.50;;
5979;SDS011;3016;50.308;8.258;2023-06-22T11:44:38;24.27;;;7.97;;
5979;SDS011;3016;50.308;8.258;2023-06-22T11:47:38;23.80;;;8.60;;
5979;SDS011;3016;50.308;8.258;2023-06-22T11:50:39;25.80;;;8.43;;
5979;SDS011;3016;50.308;8.258;2023-06-22T11:53:40;22.00;;;7.63;;
5979;SDS011;3016;50.308;8.258;2023-06-22T11:56:40;25.80;;;8.10;;
5979;SDS011;3016;50.308;8.258;2023-06-22T11:59:41;25.07;;;9.17;;
5979;SDS011;3016;50.308;8.258;2023-06-22T12:02:42;25.47;;;8.90;;
5979;SDS011;3016;50.308;8.258;2023-06-22T12:05:42;27.23;;;8.80;;
5979;SDS011;3016;50.308;8.258;2023-06-22T12:08:43;24.63;;;8.30;;
5979;SDS011;3016;50.308;8.258;2023-06-22T12:11:44;23.87;;;8.80;;
5979;SDS011;3016;50.308;8.258;2023-06-22T12:14:44;23.17;;;8.30;;
5979;SDS011;3016;50.308;8.258;2023-06-22T12:17:46;23.37;;;8.40;;
5979;SDS011;3016;50.308;8.258;2023-06-22T12:20:48;23.70;;;7.93;;
5979;SDS011;3016;50.308;8.258;2023-06-22T12:23:48;23.20;;;8.20;;
5979;SDS011;3016;50.308;8.258;2023-06-22T12:26:49;23.10;;;7.77;;
5979;SDS011;3016;50.308;8.258;2023-06-22T12:29:50;24.90;;;7.70;;
5979;SDS011;3016;50.308;8.258;2023-06-22T12:32:51;23.60;;;8.00;;
5979;SDS011;3016;50.308;8.258;2023-06-22T12:35:57;24.00;;;8.73;;
5979;SDS011;3016;50.308;8.258;2023-06-22T12:38:59;26.73;;;8.30;;
5979;SDS011;3016;50.308;8.258;2023-06-22T12:42:00;27.67;;;8.07;;
5979;SDS011;3016;50.308;8.258;2023-06-22T12:45:01;23.37;;;7.23;;
5979;SDS011;3016;50.308;8.258;2023-06-22T12:48:02;26.23;;;9.23;;
5979;SDS011;3016;50.308;8.258;2023-06-22T12:51:03;23.83;;;8.50;;
5979;SDS011;3016;50.308;8.258;2023-06-22T12:54:03;24.70;;;7.83;;
5979;SDS011;3016;50.308;8.258;2023-06-22T12:57:04;27.70;;;8.13;;
5979;SDS011;3016;50.308;8.258;2023-06-22T13:00:05;26.40;;;9.40;;
5979;SDS011;3016;50.308;8.258;2023-06-22T13:03:09;24.17;;;9.37;;
5979;SDS011;3016;50.308;8.258;2023-06-22T13:06:10;22.13;;;8.50;;
5979;SDS011;3016;50.308;8.258;2023-06-22T13:09:10;25.13;;;8.60;;
5979;SDS011;3016;50.308;8.258;2023-06-22T13:12:11;23.30;;;7.87;;
5979;SDS011;3016;50.308;8.258;2023-06-22T13:15:12;24.60;;;8.07;;
5979;SDS011;3016;50.308;8.258;2023-06-22T13:18:12;25.17;;;8.10;;
5979;SDS011;3016;50.308;8.258;2023-06-22T13:21:13;26.27;;;8.37;;
5979;SDS011;3016;50.308;8.258;2023-06-22T13:24:14;24.97;;;9.00;;
5979;SDS011;3016;50.308;8.258;2023-06-22T13:27:14;23.80;;;8.30;;
5979;SDS011;3016;50.308;8.258;2023-06-22T13:30:15;26.63;;;9.07;;
5979;SDS011;3016;50.308;8.258;2023-06-22T13:33:16;23.00;;;8.50;;
5979;SDS011;3016;50.308;8.258;2023-06-22T13:36:17;24.07;;;8.30;;
5979;SDS011;3016;50.308;8.258;2023-06-22T13:39:17;23.37;;;8.00;;
5979;SDS011;3016;50.308;8.258;2023-06-22T13:42:18;22.33;;;7.53;;
5979;SDS011;3016;50.308;8.258;2023-06-22T13:45:19;23.50;;;7.90;;
5979;SDS011;3016;50.308;8.258;2023-06-22T13:48:20;25.00;;;7.17;;
5979;SDS011;3016;50.308;8.258;2023-06-22T13:51:20;25.20;;;7.60;;
5979;SDS011;3016;50.308;8.258;2023-06-22T13:54:21;23.87;;;7.63;;
5979;SDS011;3016;50.308;8.258;2023-06-22T13:57:22;25.10;;;8.53;;
5979;SDS011;3016;50.308;8.258;2023-06-22T14:00:23;24.00;;;8.03;;
5979;SDS011;3016;50.308;8.258;2023-06-22T14:03:23;24.03;;;8.10;;
5979;SDS011;3016;50.308;8.258;2023-06-22T14:06:24;25.03;;;8.20;;
5979;SDS011;3016;50.308;8.258;2023-06-22T14:09:25;25.73;;;7.60;;
5979;SDS011;3016;50.308;8.258;2023-06-22T14:12:26;24.10;;;7.70;;
5979;SDS011;3016;50.308;8.258;2023-06-22T14:15:26;22.93;;;7.90;;
5979;SDS011;3016;50.308;8.258;2023-06-22T14:18:27;26.00;;;9.30;;
5979;SDS011;3016;50.308;8.258;2023-06-22T14:21:28;31.63;;;8.37;;
5979;SDS011;3016;50.308;8.258;2023-06-22T14:24:29;22.80;;;7.93;;
5979;SDS011;3016;50.308;8.258;2023-06-22T14:27:30;24.60;;;8.57;;
5979;SDS011;3016;50.308;8.258;2023-06-22T14:30:30;24.87;;;9.27;;
5979;SDS011;3016;50.308;8.258;2023-06-22T14:33:31;25.00;;;9.23;;
5979;SDS011;3016;50.308;8.258;2023-06-22T14:36:32;26.43;;;9.57;;
5979;SDS011;3016;50.308;8.258;2023-06-22T14:39:33;24.17;;;8.67;;
5979;SDS011;3016;50.308;8.258;2023-06-22T14:42:35;26.67;;;8.27;;
5979;SDS011;3016;50.308;8.258;2023-06-22T14:45:35;25.10;;;8.80;;
5979;SDS011;3016;50.308;8.258;2023-06-22T14:48:36;26.47;;;9.47;;
5979;SDS011;3016;50.308;8.258;2023-06-22T14:51:36;23.77;;;9.47;;
5979;SDS011;3016;50.308;8.258;2023-06-22T14:54:37;26.80;;;9.77;;
5979;SDS011;3016;50.308;8.258;2023-06-22T14:57:38;24.90;;;8.90;;
5979;SDS011;3016;50.308;8.258;2023-06-22T15:00:38;24.93;;;8.80;;
5979;SDS011;3016;50.308;8.258;2023-06-22T15:03:39;25.20;;;9.10;;
5979;SDS011;3016;50.308;8.258;2023-06-22T15:06:40;24.70;;;9.60;;
5979;SDS011;3016;50.308;8.258;2023-06-22T15:09:40;24.27;;;9.43;;
5979;SDS011;3016;50.308;8.258;2023-06-22T15:12:42;25.93;;;9.00;;
5979;SDS011;3016;50.308;8.258;2023-06-22T15:15:44;24.23;;;8.87;;
5979;SDS011;3016;50.308;8.258;2023-06-22T15:18:47;25.43;;;9.47;;
5979;SDS011;3016;50.308;8.258;2023-06-22T15:21:51;26.13;;;7.80;;
5979;SDS011;3016;50.308;8.258;2023-06-22T15:25:01;25.47;;;8.60;;
5979;SDS011;3016;50.308;8.258;2023-06-22T15:28:03;26.23;;;8.87;;
5979;SDS011;3016;50.308;8.258;2023-06-22T15:31:04;23.53;;;7.07;;
5979;SDS011;3016;50.308;8.258;2023-06-22T15:34:05;24.73;;;6.93;;
5979;SDS011;3016;50.308;8.258;2023-06-22T15:37:06;23.50;;;6.87;;
5979;SDS011;3016;50.308;8.258;2023-06-22T15:40:07;24.67;;;7.40;;
5979;SDS011;3016;50.308;8.258;2023-06-22T15:43:11;26.43;;;7.70;;
5979;SDS011;3016;50.308;8.258;2023-06-22T15:46:14;24.40;;;7.00;;
5979;SDS011;3016;50.308;8.258;2023-06-22T15:49:17;20.10;;;4.10;;
5979;SDS011;3016;50.308;8.258;2023-06-22T15:52:18;22.63;;;3.93;;
5979;SDS011;3016;50.308;8.258;2023-06-22T15:55:19;24.00;;;5.87;;
5979;SDS011;3016;50.308;8.258;2023-06-22T15:58:20;25.17;;;6.13;;
5979;SDS011;3016;50.308;8.258;2023-06-22T16:01:22;20.70;;;5.10;;
5979;SDS011;3016;50.308;8.258;2023-06-22T16:04:23;22.80;;;5.37;;
5979;SDS011;3016;50.308;8.258;2023-06-22T16:07:24;33.03;;;5.43;;
5979;SDS011;3016;50.308;8.258;2023-06-22T16:10:27;29.87;;;5.37;;
5979;SDS011;3016;50.308;8.258;2023-06-22T16:13:28;24.50;;;5.13;;
5979;SDS011;3016;50.308;8.258;2023-06-22T16:16:28;23.83;;;4.40;;
5979;SDS011;3016;50.308;8.258;2023-06-22T16:19:29;22.17;;;4.70;;
5979;SDS011;3016;50.308;8.258;2023-06-22T16:22:30;24.17;;;5.40;;
5979;SDS011;3016;50.308;8.258;2023-06-22T16:25:30;21.10;;;4.97;;
5979;SDS011;3016;50.308;8.258;2023-06-22T16:28:31;21.10;;;4.60;;
5979;SDS011;3016;50.308;8.258;2023-06-22T16:31:32;23.90;;;5.00;;
5979;SDS011;3016;50.308;8.258;2023-06-22T16:34:33;19.97;;;4.37;;
5979;SDS011;3016;50.308;8.258;2023-06-22T16:37:33;23.20;;;5.50;;
5979;SDS011;3016;50.308;8.258;2023-06-22T16:40:34;21.73;;;5.07;;
5979;SDS011;3016;50.308;8.258;2023-06-22T16:43:38;25.30;;;5.33;;
5979;SDS011;3016;50.308;8.258;2023-06-22T16:46:39;25.90;;;5.13;;
5979;SDS011;3016;50.308;8.258;2023-06-22T16:49:40;25.67;;;5.43;;
5979;SDS011;3016;50.308;8.258;2023-06-22T16:52:41;25.03;;;5.90;;
5979;SDS011;3016;50.308;8.258;2023-06-22T16:55:43;22.10;;;4.80;;
5979;SDS011;3016;50.308;8.258;2023-06-22T16:58:50;23.40;;;6.40;;
5979;SDS011;3016;50.308;8.258;2023-06-22T17:01:53;21.57;;;5.17;;
5979;SDS011;3016;50.308;8.258;2023-06-22T17:04:55;22.70;;;5.60;;
5979;SDS011;3016;50.308;8.258;2023-06-22T17:07:56;23.00;;;5.93;;
5979;SDS011;3016;50.308;8.258;2023-06-22T17:11:02;20.37;;;5.50;;
5979;SDS011;3016;50.308;8.258;2023-06-22T17:14:02;22.80;;;6.03;;
5979;SDS011;3016;50.308;8.258;2023-06-22T17:17:03;24.03;;;6.10;;
5979;SDS011;3016;50.308;8.258;2023-06-22T17:20:04;22.63;;;5.47;;
5979;SDS011;3016;50.308;8.258;2023-06-22T17:23:07;21.83;;;4.60;;
5979;SDS011;3016;50.308;8.258;2023-06-22T17:26:07;21.07;;;5.47;;
5979;SDS011;3016;50.308;8.258;2023-06-22T17:29:09;22.20;;;6.03;;
5979;SDS011;3016;50.308;8.258;2023-06-22T17:32:09;21.40;;;5.33;;
5979;SDS011;3016;50.308;8.258;2023-06-22T17:35:10;19.40;;;6.07;;
5979;SDS011;3016;50.308;8.258;2023-06-22T17:38:15;21.87;;;5.23;;
5979;SDS011;3016;50.308;8.258;2023-06-22T17:41:31;21.37;;;5.30;;
5979;SDS011;3016;50.308;8.258;2023-06-22T17:44:32;22.33;;;5.00;;
5979;SDS011;3016;50.308;8.258;2023-06-22T17:47:35;21.73;;;5.00;;
5979;SDS011;3016;50.308;8.258;2023-06-22T17:50:39;22.77;;;5.30;;
5979;SDS011;3016;50.308;8.258;2023-06-22T17:53:46;22.60;;;5.47;;
5979;SDS011;3016;50.308;8.258;2023-06-22T17:56:49;21.77;;;5.63;;
5979;SDS011;3016;50.308;8.258;2023-06-22T17:59:50;29.57;;;6.20;;
5979;SDS011;3016;50.308;8.258;2023-06-22T18:02:51;21.80;;;4.97;;
5979;SDS011;3016;50.308;8.258;2023-06-22T18:05:53;20.97;;;5.40;;
5979;SDS011;3016;50.308;8.258;2023-06-22T18:08:58;21.97;;;5.87;;
5979;SDS011;3016;50.308;8.258;2023-06-22T18:12:02;22.67;;;5.97;;
5979;SDS011;3016;50.308;8.258;2023-06-22T18:15:06;22.10;;;5.87;;
5979;SDS011;3016;50.308;8.258;2023-06-22T18:18:08;20.13;;;5.50;;
5979;SDS011;3016;50.308;8.258;2023-06-22T18:21:09;26.93;;;7.03;;
5979;SDS011;3016;50.308;8.258;2023-06-22T18:24:12;25.13;;;6.27;;
5979;SDS011;3016;50.308;8.258;2023-06-22T18:27:15;26.43;;;7.33;;